createdAt,value
2022-10-08T00:00:46.030Z,1.83
2022-10-08T00:03:14.260Z,3.00
2022-10-08T00:05:42.436Z,3.00
2022-10-08T00:08:12.393Z,1.87
2022-10-08T00:10:40.012Z,2.47
2022-10-08T00:13:07.622Z,2.30
2022-10-08T00:15:37.573Z,1.90
2022-10-08T00:18:05.391Z,3.63
2022-10-08T00:20:34.788Z,2.07
2022-10-08T00:23:02.513Z,1.70
2022-10-08T00:25:31.449Z,2.27
2022-10-08T00:27:59.190Z,2.50
2022-10-08T00:30:26.870Z,1.90
2022-10-08T00:32:59.760Z,2.50
2022-10-08T00:35:27.620Z,2.03
2022-10-08T00:37:55.280Z,2.30
2022-10-08T00:40:22.951Z,1.60
2022-10-08T00:42:52.844Z,2.30
2022-10-08T00:45:20.535Z,1.60
2022-10-08T00:47:49.861Z,2.10
2022-10-08T00:50:20.343Z,1.97
2022-10-08T00:52:51.471Z,1.77
2022-10-08T00:55:22.003Z,2.10
2022-10-08T00:57:50.303Z,1.97
2022-10-08T01:00:21.728Z,2.20
2022-10-08T01:02:49.967Z,2.67
2022-10-08T01:05:20.618Z,2.27
2022-10-08T01:07:53.537Z,2.30
2022-10-08T01:10:32.625Z,2.10
2022-10-08T01:13:17.075Z,2.00
2022-10-08T01:15:56.239Z,2.03
2022-10-08T01:18:29.723Z,2.03
2022-10-08T01:21:06.626Z,1.90
2022-10-08T01:23:58.706Z,1.90
2022-10-08T01:26:42.604Z,2.30
2022-10-08T01:29:16.244Z,1.90
2022-10-08T01:31:47.421Z,1.57
2022-10-08T01:34:21.716Z,1.87
2022-10-08T01:36:52.259Z,1.70
2022-10-08T01:39:22.103Z,2.07
2022-10-08T01:41:54.399Z,2.77
2022-10-08T01:44:27.629Z,1.73
2022-10-08T01:46:58.689Z,2.10
2022-10-08T01:49:31.369Z,1.60
2022-10-08T01:52:03.227Z,1.80
2022-10-08T01:54:33.023Z,1.83
2022-10-08T01:57:04.101Z,1.83
2022-10-08T01:59:38.139Z,1.90
2022-10-08T02:02:11.515Z,1.90
2022-10-08T02:04:39.151Z,2.13
2022-10-08T02:07:10.573Z,1.80
2022-10-08T02:09:40.992Z,1.90
2022-10-08T02:12:09.661Z,1.80
2022-10-08T02:14:41.933Z,2.20
2022-10-08T02:17:23.535Z,1.27
2022-10-08T02:19:55.830Z,1.60
2022-10-08T02:22:28.572Z,1.90
2022-10-08T02:25:01.071Z,1.97
2022-10-08T02:27:33.288Z,2.00
2022-10-08T02:30:08.963Z,1.60
2022-10-08T02:32:41.753Z,2.87
2022-10-08T02:35:17.264Z,2.03
2022-10-08T02:37:48.274Z,2.73
2022-10-08T02:40:18.793Z,2.20
2022-10-08T02:42:53.942Z,1.93
2022-10-08T02:45:27.409Z,2.30
2022-10-08T02:48:00.475Z,2.03
2022-10-08T02:50:30.014Z,2.10
2022-10-08T02:52:58.447Z,1.73
2022-10-08T02:55:37.808Z,2.80
2022-10-08T02:58:10.248Z,2.30
2022-10-08T03:00:45.463Z,2.07
2022-10-08T03:03:15.382Z,1.90
2022-10-08T03:05:44.181Z,2.40
2022-10-08T03:08:14.986Z,2.10
2022-10-08T03:10:44.052Z,2.37
2022-10-08T03:13:13.580Z,2.37
2022-10-08T03:15:44.576Z,2.30
2022-10-08T03:18:13.161Z,2.40
2022-10-08T03:20:44.904Z,2.27
2022-10-08T03:23:15.871Z,2.53
2022-10-08T03:25:43.438Z,2.80
2022-10-08T03:28:11.198Z,2.40
2022-10-08T03:30:38.938Z,2.90
2022-10-08T03:33:07.888Z,3.20
2022-10-08T03:35:35.469Z,2.33
2022-10-08T03:38:03.041Z,1.97
2022-10-08T03:40:30.863Z,3.10
2022-10-08T03:42:58.394Z,2.20
2022-10-08T03:45:25.921Z,2.20
2022-10-08T03:47:53.517Z,2.87
2022-10-08T03:50:23.209Z,2.60
2022-10-08T03:52:50.751Z,2.17
2022-10-08T03:55:18.365Z,2.07
2022-10-08T03:57:45.944Z,3.30
2022-10-08T04:00:14.151Z,2.80
2022-10-08T04:02:41.776Z,2.30
2022-10-08T04:05:09.926Z,2.57
2022-10-08T04:07:38.809Z,3.90
2022-10-08T04:10:07.193Z,2.50
2022-10-08T04:12:34.721Z,2.30
2022-10-08T04:15:02.303Z,4.83
2022-10-08T04:17:29.814Z,2.40
2022-10-08T04:19:57.334Z,3.73
2022-10-08T04:22:24.844Z,3.13
2022-10-08T04:24:54.829Z,3.30
2022-10-08T04:27:22.367Z,3.83
2022-10-08T04:29:49.929Z,3.00
2022-10-08T04:32:17.869Z,3.00
2022-10-08T04:34:45.400Z,2.80
2022-10-08T04:37:12.942Z,3.00
2022-10-08T04:39:40.630Z,3.20
2022-10-08T04:42:09.497Z,3.13
2022-10-08T04:44:37.146Z,3.20
2022-10-08T04:47:04.770Z,3.30
2022-10-08T04:49:32.325Z,3.60
2022-10-08T04:51:59.879Z,3.40
2022-10-08T04:54:27.576Z,4.57
2022-10-08T04:56:55.170Z,4.10
2022-10-08T04:59:24.133Z,3.50
2022-10-08T05:01:52.771Z,4.47
2022-10-08T05:04:20.373Z,3.40
2022-10-08T05:06:47.927Z,5.33
2022-10-08T05:09:15.581Z,4.57
2022-10-08T05:11:43.286Z,4.70
2022-10-08T05:14:10.946Z,5.17
2022-10-08T05:16:39.985Z,4.53
2022-10-08T05:19:07.521Z,4.90
2022-10-08T05:21:35.145Z,5.00
2022-10-08T05:24:04.755Z,5.03
2022-10-08T05:26:57.694Z,6.70
2022-10-08T05:29:22.230Z,5.67
2022-10-08T05:31:51.154Z,6.07
2022-10-08T05:34:18.833Z,5.30
2022-10-08T05:36:46.569Z,6.00
2022-10-08T05:39:14.387Z,5.20
2022-10-08T05:41:43.031Z,4.53
2022-10-08T05:44:12.109Z,5.10
2022-10-08T05:46:40.161Z,4.70
2022-10-08T05:49:16.266Z,4.33
2022-10-08T05:51:43.922Z,5.50
2022-10-08T05:54:11.553Z,6.30
2022-10-08T05:56:39.272Z,5.90
2022-10-08T05:59:06.904Z,5.87
2022-10-08T06:01:34.918Z,4.97
2022-10-08T06:04:08.840Z,5.27
2022-10-08T06:06:38.616Z,6.00
2022-10-08T06:09:07.633Z,5.60
2022-10-08T06:11:37.541Z,4.23
2022-10-08T06:14:06.979Z,5.43
2022-10-08T06:16:35.433Z,5.80
2022-10-08T06:19:03.640Z,5.70
2022-10-08T06:21:32.150Z,5.00
2022-10-08T06:24:02.869Z,6.55
2022-10-08T06:26:35.695Z,4.67
2022-10-08T06:29:06.079Z,5.50
2022-10-08T06:31:34.776Z,5.40
2022-10-08T06:34:04.167Z,5.82
2022-10-08T06:36:32.665Z,5.50
2022-10-08T06:39:04.502Z,5.73
2022-10-08T06:41:35.219Z,7.10
2022-10-08T06:44:03.895Z,5.70
2022-10-08T06:46:32.682Z,5.30
2022-10-08T06:49:01.632Z,5.60
2022-10-08T06:51:31.135Z,6.10
2022-10-08T06:54:07.382Z,5.60
2022-10-08T06:56:36.589Z,6.13
2022-10-08T06:59:05.371Z,6.70
2022-10-08T07:01:34.359Z,7.03
2022-10-08T07:04:02.962Z,6.20
2022-10-08T07:06:31.455Z,6.40
2022-10-08T07:09:02.220Z,5.50
2022-10-08T07:11:32.287Z,6.53
2022-10-08T07:14:00.670Z,6.60
2022-10-08T07:16:29.405Z,5.68
2022-10-08T07:18:58.647Z,5.90
2022-10-08T07:21:27.849Z,5.60
2022-10-08T07:23:55.436Z,6.13
2022-10-08T07:26:27.274Z,5.37
2022-10-08T07:28:57.093Z,5.87
2022-10-08T07:31:28.083Z,5.80
2022-10-08T07:33:56.386Z,7.23
2022-10-08T07:36:25.206Z,4.47
2022-10-08T07:38:55.335Z,5.40
2022-10-08T07:41:24.919Z,5.77
2022-10-08T07:43:53.629Z,5.40
2022-10-08T07:46:22.340Z,4.60
2022-10-08T07:48:50.644Z,4.30
2022-10-08T07:51:19.604Z,3.90
2022-10-08T07:53:47.323Z,4.30
2022-10-08T07:56:16.574Z,4.20
2022-10-08T07:58:47.192Z,3.60
2022-10-08T08:01:19.653Z,4.70
2022-10-08T08:03:53.731Z,3.70
2022-10-08T08:06:21.416Z,3.90
2022-10-08T08:08:49.104Z,3.90
2022-10-08T08:11:18.583Z,4.40
2022-10-08T08:13:47.574Z,6.70
2022-10-08T08:16:19.589Z,4.77
2022-10-08T08:18:49.638Z,4.30
2022-10-08T08:21:19.624Z,5.17
2022-10-08T08:23:49.853Z,4.97
2022-10-08T08:26:19.173Z,4.70
2022-10-08T08:28:51.682Z,5.37
2022-10-08T08:31:21.980Z,5.10
2022-10-08T08:33:51.216Z,5.83
2022-10-08T08:36:19.675Z,4.70
2022-10-08T08:38:47.658Z,5.40
2022-10-08T08:41:29.543Z,4.63
2022-10-08T08:44:03.034Z,4.50
2022-10-08T08:46:36.350Z,5.37
2022-10-08T08:49:08.629Z,5.30
2022-10-08T08:51:37.028Z,5.63
2022-10-08T08:54:04.822Z,6.50
2022-10-08T08:56:34.393Z,6.30
2022-10-08T08:59:10.246Z,4.83
2022-10-08T09:01:43.633Z,4.50
2022-10-08T09:04:19.501Z,6.00
2022-10-08T09:06:48.109Z,5.50
2022-10-08T09:09:26.227Z,5.60
2022-10-08T09:11:54.570Z,6.05
2022-10-08T09:14:39.521Z,5.10
2022-10-08T09:17:16.270Z,4.63
2022-10-08T09:19:44.682Z,4.60
2022-10-08T09:22:22.728Z,4.60
2022-10-08T09:24:54.019Z,4.47
2022-10-08T09:27:21.548Z,4.93
2022-10-08T09:29:50.485Z,4.37
2022-10-08T09:32:20.070Z,4.93
2022-10-08T09:34:48.926Z,5.10
2022-10-08T09:37:23.134Z,4.60
2022-10-08T09:40:25.641Z,4.87
2022-10-08T09:43:11.624Z,5.00
2022-10-08T09:45:51.148Z,5.67
2022-10-08T09:48:21.849Z,5.13
2022-10-08T09:50:59.465Z,4.87
2022-10-08T09:53:30.692Z,4.67
2022-10-08T09:56:01.488Z,6.20
2022-10-08T09:58:31.960Z,4.70
2022-10-08T10:01:04.721Z,4.40
2022-10-08T10:03:33.203Z,4.47
2022-10-08T10:06:02.183Z,3.83
2022-10-08T10:08:49.833Z,4.50
2022-10-08T10:11:23.196Z,3.17
2022-10-08T10:13:51.520Z,3.87
2022-10-08T10:16:24.839Z,4.00
2022-10-08T10:18:57.735Z,3.30
2022-10-08T10:21:33.953Z,3.63
2022-10-08T10:24:36.999Z,3.10
2022-10-08T10:27:10.535Z,3.07
2022-10-08T10:29:50.986Z,3.47
2022-10-08T10:32:23.905Z,2.87
2022-10-08T10:35:00.163Z,3.33
2022-10-08T10:37:35.029Z,3.30
2022-10-08T10:40:21.458Z,2.90
2022-10-08T10:42:56.288Z,3.00
2022-10-08T10:45:27.358Z,3.70
2022-10-08T10:47:56.191Z,3.73
2022-10-08T10:50:30.217Z,4.27
2022-10-08T10:53:09.249Z,3.50
2022-10-08T10:55:41.698Z,3.57
2022-10-08T10:58:23.035Z,3.97
2022-10-08T11:01:02.541Z,3.93
2022-10-08T11:03:39.842Z,3.60
2022-10-08T11:06:31.931Z,3.00
2022-10-08T11:09:03.835Z,3.50
2022-10-08T11:11:39.477Z,3.27
2022-10-08T11:14:22.437Z,3.13
2022-10-08T11:17:03.427Z,3.17
2022-10-08T11:19:45.479Z,3.53
2022-10-08T11:22:19.173Z,2.77
2022-10-08T11:25:05.622Z,2.63
2022-10-08T11:27:46.955Z,2.50
2022-10-08T11:30:18.697Z,3.30
2022-10-08T11:32:52.402Z,1.43
2022-10-08T11:35:28.979Z,1.40
2022-10-08T11:38:06.324Z,1.52
2022-10-08T11:40:41.366Z,1.70
2022-10-08T11:43:14.585Z,1.40
2022-10-08T11:45:45.904Z,1.30
2022-10-08T11:48:34.415Z,1.13
2022-10-08T11:51:32.930Z,1.07
2022-10-08T11:54:08.018Z,1.27
2022-10-08T11:56:38.982Z,1.30
2022-10-08T11:59:25.471Z,1.37
2022-10-08T12:01:56.246Z,1.00
2022-10-08T12:04:30.422Z,1.30
2022-10-08T12:07:07.679Z,1.00
2022-10-08T12:10:23.248Z,1.10
2022-10-08T12:13:03.629Z,0.90
2022-10-08T12:15:50.419Z,1.10
2022-10-08T12:18:32.869Z,1.10
2022-10-08T12:21:34.118Z,1.13
2022-10-08T12:24:03.280Z,1.00
2022-10-08T12:26:31.290Z,1.30
2022-10-08T12:28:59.464Z,1.30
2022-10-08T12:31:29.593Z,1.20
2022-10-08T12:34:03.007Z,1.30
2022-10-08T12:36:42.399Z,1.23
2022-10-08T12:39:19.872Z,1.20
2022-10-08T12:41:58.430Z,1.55
2022-10-08T12:44:40.924Z,2.17
2022-10-08T12:47:23.206Z,1.17
2022-10-08T12:49:57.827Z,1.10
2022-10-08T12:52:27.105Z,1.30
2022-10-08T12:54:58.601Z,1.60
2022-10-08T12:57:30.228Z,1.30
2022-10-08T12:59:59.999Z,1.07
2022-10-08T13:02:38.284Z,1.50
2022-10-08T13:05:08.124Z,1.57
2022-10-08T13:07:36.750Z,1.60
2022-10-08T13:10:19.433Z,1.30
2022-10-08T13:13:00.012Z,1.50
2022-10-08T13:15:27.653Z,2.07
2022-10-08T13:17:55.418Z,1.20
2022-10-08T13:20:25.037Z,1.13
2022-10-08T13:22:52.920Z,1.23
2022-10-08T13:25:36.633Z,1.37
2022-10-08T13:28:13.199Z,1.63
2022-10-08T13:30:41.644Z,2.90
2022-10-08T13:33:15.764Z,1.10
2022-10-08T13:35:44.996Z,1.47
2022-10-08T13:38:22.160Z,1.23
2022-10-08T13:40:54.086Z,1.10
2022-10-08T13:43:22.769Z,1.53
2022-10-08T13:45:50.308Z,1.23
2022-10-08T13:48:18.064Z,1.30
2022-10-08T13:50:46.843Z,1.47
2022-10-08T13:53:17.784Z,0.80
2022-10-08T13:55:47.622Z,0.80
2022-10-08T13:58:18.352Z,0.77
2022-10-08T14:00:47.336Z,1.00
2022-10-08T14:03:15.334Z,1.30
2022-10-08T14:05:47.128Z,0.90
2022-10-08T14:08:18.491Z,1.40
2022-10-08T14:10:46.661Z,0.85
2022-10-08T14:13:16.817Z,0.90
2022-10-08T14:15:44.800Z,0.75
2022-10-08T14:18:12.443Z,1.20
2022-10-08T14:20:40.198Z,1.10
2022-10-08T14:23:08.033Z,0.77
2022-10-08T14:25:35.681Z,1.30
2022-10-08T14:28:03.389Z,0.80
2022-10-08T14:30:32.352Z,1.50
2022-10-08T14:32:59.881Z,0.90
2022-10-08T14:35:27.682Z,0.90
2022-10-08T14:37:55.308Z,0.77
2022-10-08T14:40:23.652Z,1.00
2022-10-08T14:42:51.844Z,1.20
2022-10-08T14:45:20.634Z,1.30
2022-10-08T14:47:49.752Z,1.07
2022-10-08T14:50:17.680Z,1.20
2022-10-08T14:52:45.342Z,1.30
2022-10-08T14:55:13.218Z,1.30
2022-10-08T14:57:40.881Z,1.20
2022-10-08T15:00:09.560Z,1.20
2022-10-08T15:02:37.192Z,1.30
2022-10-08T15:05:07.168Z,1.20
2022-10-08T15:07:34.815Z,1.30
2022-10-08T15:10:02.450Z,1.40
2022-10-08T15:12:30.333Z,1.20
2022-10-08T15:14:57.932Z,1.17
2022-10-08T15:17:28.100Z,1.50
2022-10-08T15:19:57.554Z,2.00
2022-10-08T15:22:26.605Z,1.00
2022-10-08T15:24:54.273Z,0.90
2022-10-08T15:27:22.175Z,1.13
2022-10-08T15:29:49.818Z,0.90
2022-10-08T15:32:17.507Z,1.00
2022-10-08T15:34:45.114Z,1.00
2022-10-08T15:37:12.687Z,1.00
2022-10-08T15:39:41.749Z,1.10
2022-10-08T15:42:11.888Z,1.10
2022-10-08T15:44:39.629Z,0.90
2022-10-08T15:47:11.716Z,1.23
2022-10-08T15:49:41.649Z,0.97
2022-10-08T15:52:13.689Z,0.90
2022-10-08T15:54:43.177Z,1.60
2022-10-08T15:57:13.004Z,1.27
2022-10-08T15:59:40.962Z,0.90
2022-10-08T16:02:14.122Z,0.97
2022-10-08T16:04:44.123Z,0.90
2022-10-08T16:07:12.049Z,1.60
2022-10-08T16:09:39.762Z,1.10
2022-10-08T16:12:08.698Z,1.27
2022-10-08T16:14:36.620Z,1.37
2022-10-08T16:17:04.219Z,1.60
2022-10-08T16:19:31.817Z,1.20
2022-10-08T16:21:59.523Z,1.43
2022-10-08T16:24:28.012Z,1.47
2022-10-08T16:26:56.248Z,1.20
2022-10-08T16:29:25.534Z,2.20
2022-10-08T16:31:53.470Z,1.00
2022-10-08T16:34:23.225Z,1.20
2022-10-08T16:36:51.567Z,1.40
2022-10-08T16:39:21.415Z,1.67
2022-10-08T16:41:50.185Z,1.07
2022-10-08T16:44:19.370Z,1.60
2022-10-08T16:46:50.584Z,1.87
2022-10-08T16:49:24.653Z,2.20
2022-10-08T16:51:55.119Z,1.40
2022-10-08T16:54:23.440Z,1.20
2022-10-08T16:56:51.518Z,1.52
2022-10-08T16:59:20.832Z,2.27
2022-10-08T17:01:51.302Z,2.27
2022-10-08T17:04:20.329Z,1.67
2022-10-08T17:06:47.988Z,1.70
2022-10-08T17:09:15.603Z,1.70
2022-10-08T17:11:43.683Z,1.90
2022-10-08T17:14:12.019Z,2.50
2022-10-08T17:16:40.691Z,2.50
2022-10-08T17:19:10.248Z,2.80
2022-10-08T17:21:38.279Z,3.33
2022-10-08T17:24:07.125Z,4.03
2022-10-08T17:26:35.196Z,12.07
2022-10-08T17:29:04.920Z,7.90
2022-10-08T17:31:32.581Z,5.67
2022-10-08T17:34:01.069Z,5.50
2022-10-08T17:36:31.654Z,3.10
2022-10-08T17:39:01.393Z,4.07
2022-10-08T17:41:30.755Z,3.50
2022-10-08T17:44:01.442Z,3.33
2022-10-08T17:46:30.998Z,2.90
2022-10-08T17:48:59.098Z,2.80
2022-10-08T17:51:29.146Z,3.00
2022-10-08T17:54:00.365Z,3.87
2022-10-08T17:56:28.921Z,3.43
2022-10-08T17:58:56.765Z,3.90
2022-10-08T18:01:25.886Z,3.20
2022-10-08T18:03:54.965Z,3.93
2022-10-08T18:06:23.652Z,3.60
2022-10-08T18:08:55.238Z,2.90
2022-10-08T18:11:24.748Z,3.00
2022-10-08T18:13:52.671Z,2.97
2022-10-08T18:16:21.480Z,3.07
2022-10-08T18:18:50.059Z,2.60
2022-10-08T18:21:19.677Z,3.20
2022-10-08T18:23:48.382Z,3.00
2022-10-08T18:26:18.621Z,3.50
2022-10-08T18:28:48.871Z,3.30
2022-10-08T18:31:17.504Z,2.60
2022-10-08T18:33:47.989Z,3.40
2022-10-08T18:36:16.988Z,3.20
2022-10-08T18:38:47.562Z,3.90
2022-10-08T18:41:17.252Z,3.03
2022-10-08T18:43:47.663Z,4.07
2022-10-08T18:46:16.735Z,3.47
2022-10-08T18:48:44.554Z,3.87
2022-10-08T18:51:13.855Z,3.80
2022-10-08T18:53:42.792Z,4.10
2022-10-08T18:56:12.091Z,3.23
2022-10-08T18:58:39.729Z,3.30
2022-10-08T19:01:16.762Z,3.37
2022-10-08T19:03:46.023Z,3.40
2022-10-08T19:06:13.589Z,3.30
2022-10-08T19:08:41.255Z,2.80
2022-10-08T19:11:10.706Z,4.20
2022-10-08T19:13:38.687Z,5.20
2022-10-08T19:16:13.288Z,4.30
2022-10-08T19:18:42.605Z,4.10
2022-10-08T19:21:10.628Z,3.90
2022-10-08T19:23:38.895Z,3.37
2022-10-08T19:26:07.081Z,3.80
2022-10-08T19:28:36.829Z,3.27
2022-10-08T19:31:13.988Z,3.50
2022-10-08T19:33:41.656Z,4.10
2022-10-08T19:36:09.732Z,4.47
2022-10-08T19:38:37.274Z,3.40
2022-10-08T19:41:08.051Z,3.33
2022-10-08T19:43:35.693Z,2.93
2022-10-08T19:46:03.758Z,2.30
2022-10-08T19:48:33.357Z,2.97
2022-10-08T19:51:04.945Z,3.37
2022-10-08T19:53:32.889Z,2.30
2022-10-08T19:56:01.586Z,2.23
2022-10-08T19:58:29.298Z,2.78
2022-10-08T20:01:00.660Z,3.37
2022-10-08T20:03:29.144Z,2.67
2022-10-08T20:05:58.418Z,3.40
2022-10-08T20:08:25.990Z,2.47
2022-10-08T20:10:53.540Z,2.40
2022-10-08T20:13:21.106Z,3.10
2022-10-08T20:15:51.323Z,3.50
2022-10-08T20:18:19.287Z,3.10
2022-10-08T20:20:46.855Z,3.10
2022-10-08T20:23:15.848Z,2.40
2022-10-08T20:25:44.907Z,2.67
2022-10-08T20:28:12.512Z,2.13
2022-10-08T20:30:42.729Z,2.43
2022-10-08T20:33:10.430Z,2.10
2022-10-08T20:35:37.983Z,1.93
2022-10-08T20:38:05.514Z,2.33
2022-10-08T20:40:34.473Z,1.80
2022-10-08T20:43:02.058Z,1.80
2022-10-08T20:45:29.717Z,2.10
2022-10-08T20:47:57.266Z,1.83
2022-10-08T20:50:25.917Z,2.15
2022-10-08T20:52:54.115Z,2.20
2022-10-08T20:55:21.668Z,1.60
2022-10-08T20:57:50.559Z,2.00
2022-10-08T21:00:18.140Z,2.20
2022-10-08T21:02:45.890Z,2.20
2022-10-08T21:05:14.427Z,2.20
2022-10-08T21:07:41.999Z,2.67
2022-10-08T21:10:10.731Z,2.50
2022-10-08T21:12:38.432Z,2.50
2022-10-08T21:15:09.310Z,1.70
2022-10-08T21:17:37.208Z,1.83
2022-10-08T21:20:05.111Z,1.83
2022-10-08T21:22:32.715Z,2.47
2022-10-08T21:25:00.292Z,2.30
2022-10-08T21:27:27.979Z,1.77
2022-10-08T21:29:55.671Z,1.97
2022-10-08T21:32:24.809Z,1.57
2022-10-08T21:34:52.366Z,1.60
2022-10-08T21:37:19.962Z,1.73
2022-10-08T21:39:47.576Z,1.97
2022-10-08T21:42:15.143Z,1.83
2022-10-08T21:44:42.724Z,2.00
2022-10-08T21:47:10.251Z,1.63
2022-10-08T21:49:39.157Z,2.03
2022-10-08T21:52:06.798Z,2.05
2022-10-08T21:54:34.433Z,1.70
2022-10-08T21:57:01.944Z,1.97
2022-10-08T21:59:29.500Z,1.87
2022-10-08T22:01:57.624Z,2.10
2022-10-08T22:04:26.221Z,1.50
2022-10-08T22:06:58.184Z,1.70
2022-10-08T22:09:28.198Z,1.47
2022-10-08T22:11:57.240Z,2.03
2022-10-08T22:14:25.223Z,1.37
2022-10-08T22:16:52.838Z,1.88
2022-10-08T22:19:20.529Z,1.77
2022-10-08T22:21:48.273Z,2.30
2022-10-08T22:24:17.391Z,2.33
2022-10-08T22:26:47.263Z,1.80
2022-10-08T22:29:14.972Z,2.10
2022-10-08T22:31:42.713Z,2.03
2022-10-08T22:34:10.373Z,2.50
2022-10-08T22:36:40.138Z,1.70
2022-10-08T22:39:07.907Z,1.60
2022-10-08T22:41:38.150Z,1.47
2022-10-08T22:44:06.108Z,1.90
2022-10-08T22:46:37.244Z,1.93
2022-10-08T22:49:07.500Z,1.87
2022-10-08T22:51:35.512Z,1.70
2022-10-08T22:54:03.103Z,2.10
2022-10-08T22:56:32.523Z,1.80
2022-10-08T22:59:01.834Z,2.53
2022-10-08T23:01:30.870Z,1.30
2022-10-08T23:03:59.066Z,2.47
2022-10-08T23:06:27.986Z,1.50
2022-10-08T23:08:57.253Z,2.30
2022-10-08T23:11:25.654Z,1.70
2022-10-08T23:13:53.935Z,1.93
2022-10-08T23:16:24.665Z,1.57
2022-10-08T23:18:55.250Z,1.53
2022-10-08T23:21:23.890Z,1.77
2022-10-08T23:23:51.983Z,2.13
2022-10-08T23:26:19.821Z,1.47
2022-10-08T23:28:51.760Z,1.80
2022-10-08T23:31:21.639Z,2.40
2022-10-08T23:33:52.889Z,2.20
2022-10-08T23:36:22.606Z,2.20
2022-10-08T23:38:50.728Z,2.00
2022-10-08T23:41:19.257Z,2.00
2022-10-08T23:43:48.436Z,2.17
2022-10-08T23:46:19.247Z,2.10
2022-10-08T23:48:47.390Z,1.87
2022-10-08T23:51:17.809Z,1.80
2022-10-08T23:53:45.935Z,2.10
2022-10-08T23:56:14.368Z,2.10
2022-10-08T23:58:42.580Z,2.00
